Time;durP1;ratioP1;P1;durP2;ratioP2;P2;SDS_P1;SDS_P2;PMS_P1;PMS_P2;Temp;Humidity;BMP_temperature;BMP_pressure;BME280_temperature;BME280_humidity;BME280_pressure;Samples;Min_cycle;Max_cycle;Signal;HPM_P1;HPM_P2
2023/07/31 00:02:19;;;;;;;;;3.00;3.00;;;;;28.00;86.79;101248.72;5048850;28;45396;-83
2023/07/31 00:04:45;;;;;;;;;7.00;3.00;;;;;28.05;86.40;101230.34;5047679;28;49703;-83
2023/07/31 00:07:10;;;;;;;;;4.00;3.00;;;;;28.01;86.85;101242.34;5036445;28;70105;-84
2023/07/31 00:09:36;;;;;;;;;6.00;3.00;;;;;27.93;86.58;101236.47;5052642;28;45201;-84
2023/07/31 00:12:01;;;;;;;;;4.67;4.00;;;;;27.88;86.47;101244.00;5054200;28;45453;-83
2023/07/31 00:14:26;;;;;;;;;3.00;3.00;;;;;27.85;86.68;101249.56;5048061;28;58096;-83
2023/07/31 00:16:52;;;;;;;;;5.00;3.00;;;;;27.85;86.38;101242.31;5044702;28;67705;-83
2023/07/31 00:19:17;;;;;;;;;3.00;3.00;;;;;27.73;86.51;101223.09;5048001;28;62570;-84
2023/07/31 00:21:44;;;;;;;;;2.67;2.00;;;;;27.73;86.88;101223.09;5052668;28;57755;-82
2023/07/31 00:24:09;;;;;;;;;2.33;2.33;;;;;27.80;86.25;101216.38;5037635;28;45533;-82
2023/07/31 00:26:34;;;;;;;;;4.00;4.00;;;;;27.80;86.31;101213.66;5027053;28;47492;-83
2023/07/31 00:29:00;;;;;;;;;3.00;3.00;;;;;27.80;86.03;101216.38;5045574;28;62600;-83
2023/07/31 00:31:25;;;;;;;;;4.00;2.33;;;;;27.85;85.94;101209.72;5046798;28;60211;-83
2023/07/31 00:33:50;;;;;;;;;3.33;3.00;;;;;27.80;86.17;101213.66;5044390;28;45222;-83
2023/07/31 00:36:17;;;;;;;;;1.67;1.67;;;;;27.87;85.57;101212.38;5047237;28;52420;-84
2023/07/31 00:38:43;;;;;;;;;3.00;1.67;;;;;27.89;85.53;101208.59;5052576;28;45426;-83
2023/07/31 00:41:08;;;;;;;;;7.67;4.00;;;;;27.92;85.48;101213.00;5049770;28;55835;-84
2023/07/31 00:43:33;;;;;;;;;4.00;3.00;;;;;27.98;85.10;101212.66;5052171;28;56483;-83
2023/07/31 00:45:58;;;;;;;;;3.00;1.00;;;;;28.01;84.62;101207.03;5038805;28;57979;-83
2023/07/31 00:48:24;;;;;;;;;5.00;2.67;;;;;27.91;84.79;101209.41;5036263;28;59741;-83
2023/07/31 00:50:50;;;;;;;;;3.33;2.00;;;;;27.86;84.98;101202.50;5041547;28;51947;-83
2023/07/31 00:53:15;;;;;;;;;2.33;2.33;;;;;27.92;84.78;101207.59;5034975;28;56171;-84
2023/07/31 00:55:41;;;;;;;;;4.33;2.67;;;;;27.86;84.88;101199.78;5040755;28;69483;-83
2023/07/31 00:58:06;;;;;;;;;3.67;2.00;;;;;27.96;84.45;101201.00;5051629;28;45546;-83
2023/07/31 01:00:31;;;;;;;;;3.33;2.33;;;;;27.92;84.43;101191.28;5056210;28;58538;-82
2023/07/31 01:02:57;;;;;;;;;3.00;3.00;;;;;28.01;84.00;101185.31;5045234;28;59136;-83
2023/07/31 01:05:43;;;;;;;;;2.33;2.33;;;;;27.90;83.79;101187.78;5043054;28;65673;-83
2023/07/31 01:08:18;;;;;;;;;3.67;3.00;;;;;27.93;83.90;101187.63;5024532;28;46011;-83
2023/07/31 01:10:50;;;;;;;;;4.00;2.33;;;;;27.99;83.66;101178.25;5056807;28;45334;-83
2023/07/31 01:13:17;;;;;;;;;1.00;1.00;;;;;27.92;83.46;101173.16;5043281;28;45354;-83
2023/07/31 01:15:43;;;;;;;;;3.67;2.00;;;;;27.93;83.48;101171.31;5040772;28;66472;-83
2023/07/31 01:18:08;;;;;;;;;2.00;2.00;;;;;27.94;83.24;101163.09;5044437;28;64311;-83
2023/07/31 01:20:35;;;;;;;;;3.00;3.00;;;;;27.97;83.33;101159.34;5051339;28;58682;-83
2023/07/31 01:23:48;;;;;;;;;2.00;2.00;;;;;27.89;83.24;101145.31;5036326;28;45373;-83
2023/07/31 01:26:19;;;;;;;;;2.33;2.00;;;;;27.86;83.50;101156.34;5010100;28;47588;-83
2023/07/31 01:29:05;;;;;;;;;4.33;1.67;;;;;27.88;82.93;101158.00;5050655;28;45420;-83
2023/07/31 01:31:31;;;;;;;;;2.00;2.00;;;;;27.87;83.01;101158.97;5045773;28;45388;-83
2023/07/31 01:34:00;;;;;;;;;3.00;1.67;;;;;27.87;82.54;101163.53;5040615;28;63618;-84
2023/07/31 01:36:26;;;;;;;;;3.00;2.00;;;;;27.86;82.22;101159.06;5034531;28;46657;-84
2023/07/31 01:38:51;;;;;;;;;3.33;2.00;;;;;27.88;82.53;101163.44;5047576;28;66270;-83
2023/07/31 01:41:19;;;;;;;;;2.00;2.00;;;;;27.88;82.49;101163.44;5055152;28;60295;-84
2023/07/31 01:43:46;;;;;;;;;2.00;2.00;;;;;27.93;82.13;101166.78;5047695;28;45376;-83
2023/07/31 01:46:11;;;;;;;;;2.00;2.00;;;;;27.91;82.22;101160.56;5036672;28;46079;-84
2023/07/31 01:48:37;;;;;;;;;3.00;1.33;;;;;27.89;82.17;101156.16;5034663;28;67217;-84
2023/07/31 01:51:02;;;;;;;;;3.00;2.00;;;;;27.83;82.00;101161.94;5045091;28;45490;-83
2023/07/31 01:53:29;;;;;;;;;4.00;2.67;;;;;27.80;81.95;101156.66;5041137;28;45363;-84
2023/07/31 01:55:54;;;;;;;;;4.33;1.00;;;;;27.59;81.63;101159.59;5037506;28;46853;-84
2023/07/31 01:58:19;;;;;;;;;4.00;2.00;;;;;26.36;86.93;101162.31;5033087;28;61070;-83
2023/07/31 02:00:46;;;;;;;;;2.00;2.00;;;;;26.16;88.84;101162.44;5047524;28;45349;-83
2023/07/31 02:03:11;;;;;;;;;1.33;1.33;;;;;26.21;88.70;101164.94;5051313;28;45630;-83
2023/07/31 02:05:36;;;;;;;;;1.00;1.00;;;;;26.08;89.65;101162.81;5054934;28;69541;-84
2023/07/31 02:08:02;;;;;;;;;2.00;2.00;;;;;25.99;89.31;101170.47;5055488;28;45426;-83
2023/07/31 02:10:27;;;;;;;;;2.00;2.00;;;;;25.99;89.87;101168.66;5056226;28;45164;-83
2023/07/31 02:12:52;;;;;;;;;4.00;2.00;;;;;25.93;89.80;101159.94;5046595;28;45395;-83
2023/07/31 02:15:18;;;;;;;;;3.67;1.00;;;;;25.91;90.37;101161.88;5050583;28;60647;-84
2023/07/31 02:17:43;;;;;;;;;3.67;2.00;;;;;25.92;90.04;101153.66;5045892;28;45384;-82
2023/07/31 02:20:09;;;;;;;;;2.00;2.00;;;;;25.84;90.17;101148.63;5044368;28;45459;-84
2023/07/31 02:22:35;;;;;;;;;2.00;2.00;;;;;25.86;90.12;101130.47;5042198;28;45553;-83
2023/07/31 02:25:00;;;;;;;;;3.00;2.00;;;;;25.83;89.79;101138.78;5047076;28;49751;-83
2023/07/31 02:27:27;;;;;;;;;1.67;1.00;;;;;25.79;89.79;101149.81;5049537;28;45408;-83
2023/07/31 02:29:52;;;;;;;;;1.00;1.00;;;;;25.75;90.61;101142.78;5051523;28;45337;-83
2023/07/31 02:32:18;;;;;;;;;2.67;1.33;;;;;25.75;90.30;101132.81;5038237;28;45372;-83
2023/07/31 02:34:43;;;;;;;;;4.00;1.00;;;;;25.72;89.94;101132.06;5052171;28;69640;-83
2023/07/31 02:37:08;;;;;;;;;1.67;1.67;;;;;25.67;90.21;101134.97;5051962;28;47308;-83
2023/07/31 02:39:34;;;;;;;;;1.00;1.00;;;;;25.62;90.50;101126.22;5040339;28;64203;-83
2023/07/31 02:42:00;;;;;;;;;2.00;2.00;;;;;25.63;89.85;101124.41;5042080;28;52147;-84
2023/07/31 02:44:26;;;;;;;;;1.00;1.00;;;;;25.55;89.95;101124.75;5048654;28;45819;-85
2023/07/31 02:46:51;;;;;;;;;1.00;1.00;;;;;25.55;89.74;101109.38;5053476;28;45217;-83
2023/07/31 02:49:16;;;;;;;;;2.33;1.00;;;;;25.44;89.57;101113.53;5038690;28;45449;-84
2023/07/31 02:51:42;;;;;;;;;3.67;1.00;;;;;25.45;89.97;101109.88;5052976;28;49255;-83
2023/07/31 02:54:07;;;;;;;;;1.00;1.00;;;;;25.49;90.20;101106.09;5048986;28;51427;-83
2023/07/31 02:56:32;;;;;;;;;1.00;1.00;;;;;25.41;89.57;101092.03;5047943;28;67992;-83
2023/07/31 02:58:57;;;;;;;;;2.67;1.00;;;;;25.35;89.87;101101.31;5048025;28;60360;-83
2023/07/31 03:01:23;;;;;;;;;1.00;1.00;;;;;25.30;89.94;101098.84;5047983;28;45305;-83
2023/07/31 03:03:48;;;;;;;;;2.00;2.00;;;;;25.32;89.83;101106.88;5056974;28;46029;-82
2023/07/31 03:06:13;;;;;;;;;1.00;1.00;;;;;25.34;89.57;101097.75;5047405;28;57006;-83
2023/07/31 03:08:39;;;;;;;;;0.00;0.00;;;;;25.38;89.02;101101.19;5043609;28;45222;-82
2023/07/31 03:11:04;;;;;;;;;1.00;1.00;;;;;25.38;88.30;101108.44;5048603;28;59774;-83
2023/07/31 03:13:29;;;;;;;;;2.00;2.00;;;;;25.42;88.72;101116.31;5049055;28;69085;-83
2023/07/31 03:15:55;;;;;;;;;3.33;1.33;;;;;25.36;89.19;101113.91;5048492;28;66320;-83
2023/07/31 03:18:20;;;;;;;;;3.00;2.00;;;;;25.32;88.60;101104.19;5043131;28;52809;-83
2023/07/31 03:20:45;;;;;;;;;1.00;1.00;;;;;25.30;89.18;101104.25;5036946;28;59889;-82
2023/07/31 03:23:11;;;;;;;;;1.00;1.00;;;;;25.36;89.00;101104.94;5036638;28;65599;-83
2023/07/31 03:25:36;;;;;;;;;2.00;2.00;;;;;25.35;88.81;101101.31;5042355;28;45303;-83
2023/07/31 03:28:01;;;;;;;;;1.00;0.00;;;;;25.38;88.60;101101.19;5057615;28;62517;-83
2023/07/31 03:30:27;;;;;;;;;1.00;1.00;;;;;25.42;87.87;101091.13;5054289;28;51315;-82
2023/07/31 03:32:52;;;;;;;;;0.33;0.00;;;;;25.35;87.83;101079.69;5027048;28;70844;-83
2023/07/31 03:35:17;;;;;;;;;0.33;0.00;;;;;25.40;88.02;101088.47;5038969;28;68630;-82
2023/07/31 03:37:43;;;;;;;;;5.00;1.00;;;;;25.35;87.83;101087.81;5052301;28;63702;-83
2023/07/31 03:40:09;;;;;;;;;1.67;0.67;;;;;25.27;88.56;101077.34;5045989;28;60842;-82
2023/07/31 03:42:34;;;;;;;;;1.00;1.00;;;;;25.23;87.72;101081.16;5054107;28;45417;-83
2023/07/31 03:44:59;;;;;;;;;2.33;1.00;;;;;25.29;88.22;101097.06;5051520;28;45372;-82
2023/07/31 03:47:25;;;;;;;;;3.33;1.00;;;;;25.25;87.73;101087.38;5055692;28;59678;-81
2023/07/31 03:49:50;;;;;;;;;1.00;1.00;;;;;25.22;88.35;101073.13;5043163;28;52873;-82
2023/07/31 03:52:15;;;;;;;;;2.00;2.00;;;;;25.22;88.58;101079.41;5043202;28;68891;-82
2023/07/31 03:54:41;;;;;;;;;4.67;1.33;;;;;25.25;88.28;101068.47;5043498;28;45277;-83
2023/07/31 03:57:06;;;;;;;;;4.67;1.00;;;;;25.30;87.98;101079.94;5036086;28;45336;-82
2023/07/31 03:59:31;;;;;;;;;5.33;1.00;;;;;25.36;87.39;101073.38;5050316;28;62311;-82
2023/07/31 04:01:57;;;;;;;;;1.33;1.00;;;;;25.41;87.36;101076.72;5046816;28;66381;-83
2023/07/31 04:04:22;;;;;;;;;2.33;0.67;;;;;25.31;87.74;101073.56;5041094;28;65510;-83
2023/07/31 04:06:47;;;;;;;;;3.67;2.00;;;;;25.34;87.16;101077.94;5044453;28;45143;-82
2023/07/31 04:09:13;;;;;;;;;1.67;1.00;;;;;25.33;86.76;101085.19;5051350;28;52978;-82
2023/07/31 04:11:39;;;;;;;;;2.00;1.00;;;;;25.30;86.18;101079.94;5055159;28;46398;-83
2023/07/31 04:14:04;;;;;;;;;2.00;1.00;;;;;25.28;86.14;101078.22;5047825;28;45248;-84
2023/07/31 04:16:30;;;;;;;;;3.67;2.00;;;;;25.29;85.51;101072.75;5050645;28;45307;-82
2023/07/31 04:18:55;;;;;;;;;0.00;0.00;;;;;25.31;85.24;101068.16;5046335;28;45396;-83
2023/07/31 04:21:20;;;;;;;;;1.00;1.00;;;;;25.29;85.10;101078.16;5044068;28;47211;-82
2023/07/31 04:23:46;;;;;;;;;3.00;1.33;;;;;25.32;85.63;101071.75;5045598;28;64547;-82
2023/07/31 04:26:11;;;;;;;;;2.67;1.67;;;;;25.24;85.65;101065.81;5046738;28;45204;-82
2023/07/31 04:28:36;;;;;;;;;3.33;2.00;;;;;25.28;84.82;101070.13;5043732;28;50183;-82
2023/07/31 04:31:02;;;;;;;;;5.33;3.00;;;;;25.28;85.32;101075.53;5045043;28;68867;-82
2023/07/31 04:33:27;;;;;;;;;1.00;1.00;;;;;25.33;85.27;101068.09;5051190;28;45307;-82
2023/07/31 04:35:53;;;;;;;;;4.00;2.00;;;;;25.25;85.51;101068.47;5050263;28;45399;-82
2023/07/31 04:38:19;;;;;;;;;2.00;2.00;;;;;25.34;85.06;101072.53;5054559;28;45385;-83
2023/07/31 04:40:45;;;;;;;;;3.00;2.00;;;;;25.21;85.77;101074.94;5047958;28;46142;-82
2023/07/31 04:43:10;;;;;;;;;5.00;2.00;;;;;25.17;85.96;101067.91;5049939;28;45414;-83
2023/07/31 04:45:35;;;;;;;;;2.67;2.00;;;;;25.17;85.69;101073.31;5055631;28;61288;-82
2023/07/31 04:48:01;;;;;;;;;4.00;2.00;;;;;25.18;86.11;101079.59;5050918;28;62818;-83
2023/07/31 04:50:26;;;;;;;;;4.00;2.00;;;;;25.19;86.17;101081.34;5042641;28;67236;-82
2023/07/31 04:52:51;;;;;;;;;3.67;3.00;;;;;25.27;86.03;101087.28;5055659;28;45307;-82
2023/07/31 04:55:17;;;;;;;;;3.67;2.00;;;;;25.26;86.57;101083.72;5045648;28;59237;-83
2023/07/31 04:57:42;;;;;;;;;3.33;1.00;;;;;25.22;87.59;101076.69;5041456;28;45498;-83
2023/07/31 05:00:08;;;;;;;;;2.00;2.00;;;;;25.21;87.28;101082.19;5045454;28;59875;-83
2023/07/31 05:02:33;;;;;;;;;2.00;2.00;;;;;25.23;87.43;101080.28;5049743;28;45753;-83
2023/07/31 05:04:58;;;;;;;;;3.00;3.00;;;;;25.23;88.08;101073.03;5037734;28;60320;-81
2023/07/31 05:07:24;;;;;;;;;2.00;2.00;;;;;25.19;88.49;101071.41;5048526;28;55130;-83
2023/07/31 05:09:49;;;;;;;;;4.00;3.00;;;;;25.18;88.63;101079.59;5055303;28;69712;-83
2023/07/31 05:12:14;;;;;;;;;4.67;4.33;;;;;25.18;88.80;101075.06;5048919;28;53760;-83
2023/07/31 05:14:40;;;;;;;;;5.00;2.00;;;;;25.19;89.59;101074.13;5051847;28;45494;-83
2023/07/31 05:17:05;;;;;;;;;2.00;2.00;;;;;25.16;89.29;101076.97;5048732;28;59583;-82
2023/07/31 05:19:31;;;;;;;;;5.67;3.67;;;;;25.05;90.46;101080.13;5141773;22;47312;-84
2023/07/31 05:21:56;;;;;;;;;4.67;4.67;;;;;25.11;90.46;101079.00;5044046;28;65665;-83
2023/07/31 05:24:21;;;;;;;;;2.00;2.00;;;;;25.11;90.90;101070.91;5046173;28;45434;-84
2023/07/31 05:26:47;;;;;;;;;2.67;2.67;;;;;25.05;90.91;101073.84;5056192;28;45273;-83
2023/07/31 05:29:12;;;;;;;;;6.00;3.00;;;;;25.11;91.93;101073.59;5047243;28;66895;-83
2023/07/31 05:31:38;;;;;;;;;10.33;5.00;;;;;25.14;91.96;101072.56;5041850;28;45233;-85
2023/07/31 05:34:03;;;;;;;;;5.67;4.00;;;;;25.14;92.42;101069.88;5042524;28;45480;-84
2023/07/31 05:36:29;;;;;;;;;4.67;4.67;;;;;25.14;93.49;101076.19;5042929;28;45378;-84
2023/07/31 05:38:54;;;;;;;;;6.00;3.00;;;;;25.13;94.81;101069.00;5039033;28;69023;-84
2023/07/31 05:41:19;;;;;;;;;5.67;4.00;;;;;25.10;95.09;101055.66;5050151;28;52900;-84
2023/07/31 05:43:45;;;;;;;;;6.33;5.00;;;;;25.07;94.71;101048.53;5055201;28;62112;-83
2023/07/31 05:46:11;;;;;;;;;4.00;4.00;;;;;25.16;95.38;101046.38;5045755;28;45208;-84
2023/07/31 05:48:37;;;;;;;;;5.33;4.00;;;;;25.03;95.63;101055.00;5041005;28;45599;-84
2023/07/31 05:51:02;;;;;;;;;4.67;4.67;;;;;25.08;95.95;101041.31;5044195;28;45412;-85
2023/07/31 05:53:28;;;;;;;;;3.00;3.00;;;;;25.01;96.12;101031.72;5038156;28;45569;-85
2023/07/31 05:55:53;;;;;;;;;7.33;3.00;;;;;25.07;96.54;101026.06;5053428;28;63609;-83
2023/07/31 05:58:18;;;;;;;;;5.00;3.00;;;;;25.10;96.10;101025.03;5044371;28;61268;-84
2023/07/31 06:00:44;;;;;;;;;4.67;2.33;;;;;25.12;96.44;101028.53;5057830;28;56125;-84
2023/07/31 06:03:09;;;;;;;;;6.00;4.00;;;;;25.14;96.38;101023.94;5051326;28;58264;-84
2023/07/31 06:05:34;;;;;;;;;6.00;5.00;;;;;25.23;96.54;101024.38;5051146;28;60797;-84
2023/07/31 06:08:00;;;;;;;;;6.33;5.00;;;;;25.25;97.25;101030.63;5051514;28;68190;-84
2023/07/31 06:10:26;;;;;;;;;8.00;3.33;;;;;25.33;96.97;101033.81;5056477;28;45277;-84
2023/07/31 06:12:51;;;;;;;;;5.00;4.00;;;;;25.32;96.82;101020.38;5052104;28;62928;-84
2023/07/31 06:15:19;;;;;;;;;5.00;3.00;;;;;25.40;97.31;101015.47;5045709;28;57885;-83
2023/07/31 06:17:44;;;;;;;;;9.00;4.00;;;;;25.51;97.21;101009.53;5047732;28;46571;-85
2023/07/31 06:20:10;;;;;;;;;5.00;3.00;;;;;25.58;96.67;101011.91;5044167;28;53440;-83
2023/07/31 06:22:35;;;;;;;;;10.33;5.00;;;;;25.60;96.46;101012.69;5049347;28;45419;-84
2023/07/31 06:25:00;;;;;;;;;6.00;3.00;;;;;25.54;97.05;101017.53;5058862;28;45133;-82
2023/07/31 06:27:26;;;;;;;;;4.00;4.00;;;;;25.65;96.61;101023.28;5039915;28;68588;-84
2023/07/31 06:29:51;;;;;;;;;5.67;5.00;;;;;25.55;96.88;101041.78;5038801;28;45380;-84
2023/07/31 06:32:16;;;;;;;;;6.00;4.33;;;;;25.53;97.27;101040.13;5055535;28;61312;-85
2023/07/31 06:34:42;;;;;;;;;5.00;5.00;;;;;25.51;97.13;101037.47;5029257;28;65716;-82
2023/07/31 06:37:07;;;;;;;;;9.00;3.00;;;;;25.47;97.89;101027.78;5051652;28;63852;-84
2023/07/31 06:39:32;;;;;;;;;6.00;3.33;;;;;25.47;98.13;101021.50;5042030;28;45791;-83
2023/07/31 06:41:58;;;;;;;;;9.00;5.33;;;;;25.49;98.10;101028.56;5045594;28;62685;-84
2023/07/31 06:44:23;;;;;;;;;4.67;4.67;;;;;25.51;98.37;101037.47;5050481;28;60360;-84
2023/07/31 06:46:48;;;;;;;;;6.67;4.33;;;;;25.45;98.42;101040.47;5038819;28;54937;-84
2023/07/31 06:49:15;;;;;;;;;3.33;3.33;;;;;25.48;98.27;101039.47;5057293;28;62189;-84
2023/07/31 06:51:40;;;;;;;;;6.33;4.00;;;;;25.52;98.63;101050.06;5044729;28;45471;-83
2023/07/31 06:54:08;;;;;;;;;7.00;6.00;;;;;25.52;98.55;101043.78;5057710;28;45327;-84
2023/07/31 06:56:33;;;;;;;;;8.00;5.00;;;;;25.49;99.44;101039.38;5056566;28;45370;-83
2023/07/31 06:58:58;;;;;;;;;5.00;4.00;;;;;25.55;99.21;101039.06;5044948;28;46155;-83
2023/07/31 07:01:24;;;;;;;;;6.67;4.33;;;;;25.64;99.76;101032.34;5054558;28;48670;-82
2023/07/31 07:03:50;;;;;;;;;7.33;4.33;;;;;25.66;99.32;101034.97;5057723;28;45169;-83
2023/07/31 07:06:16;;;;;;;;;5.33;4.00;;;;;25.71;99.32;101028.41;5052112;28;47509;-85
2023/07/31 07:08:42;;;;;;;;;4.00;4.00;;;;;25.84;99.17;101023.31;5040239;28;45530;-83
2023/07/31 07:11:07;;;;;;;;;8.00;6.00;;;;;25.95;98.74;101014.66;5043089;28;45388;-85
2023/07/31 07:13:32;;;;;;;;;4.00;4.00;;;;;25.98;98.29;101000.97;5047609;28;45168;-82
2023/07/31 07:15:58;;;;;;;;;4.00;3.00;;;;;25.98;98.67;101009.94;5050929;28;66307;-82
2023/07/31 07:18:24;;;;;;;;;5.00;5.00;;;;;26.04;98.61;101012.34;5062401;28;45329;-83
2023/07/31 07:20:50;;;;;;;;;5.67;4.33;;;;;26.01;98.80;101004.41;5042801;28;45446;-81
2023/07/31 07:23:16;;;;;;;;;8.00;4.00;;;;;26.09;99.13;101001.28;5041407;28;45462;-83
2023/07/31 07:25:42;;;;;;;;;3.67;3.33;;;;;26.24;98.33;101002.34;5054947;28;68311;-85
2023/07/31 07:28:07;;;;;;;;;10.67;5.67;;;;;26.31;97.66;101001.97;5048571;28;45938;-83
2023/07/31 07:30:33;;;;;;;;;6.00;6.00;;;;;26.35;97.98;100990.00;5050210;28;55536;-84
2023/07/31 07:32:58;;;;;;;;;6.00;6.00;;;;;26.43;98.00;100999.59;5055921;28;60196;-85
2023/07/31 07:35:23;;;;;;;;;5.67;4.67;;;;;26.41;98.07;101012.28;5052538;28;71056;-82
2023/07/31 07:37:51;;;;;;;;;6.33;5.00;;;;;26.47;96.52;101006.59;5057677;28;45287;-84
2023/07/31 07:40:17;;;;;;;;;4.67;4.00;;;;;26.41;96.26;100999.63;5047032;28;45223;-83
2023/07/31 07:42:42;;;;;;;;;6.00;5.00;;;;;26.46;96.85;100999.41;5049778;28;53671;-84
2023/07/31 07:45:08;;;;;;;;;8.00;5.00;;;;;26.44;96.97;100991.38;5048708;28;67143;-84
2023/07/31 07:47:33;;;;;;;;;8.67;5.00;;;;;26.44;96.74;101002.22;5053490;28;45334;-84
2023/07/31 07:49:59;;;;;;;;;6.33;5.00;;;;;26.42;96.65;101006.84;5041544;28;61890;-84
2023/07/31 07:52:24;;;;;;;;;8.00;5.00;;;;;26.41;97.10;101012.28;5049711;28;59798;-81
2023/07/31 07:54:49;;;;;;;;;6.67;4.00;;;;;26.48;96.51;101003.81;5042708;28;45920;-84
2023/07/31 07:57:15;;;;;;;;;8.67;5.67;;;;;26.44;95.92;100995.94;5057483;28;45347;-83
2023/07/31 07:59:41;;;;;;;;;5.00;2.33;;;;;26.48;96.15;100997.53;5049266;28;45217;-84
2023/07/31 08:02:06;;;;;;;;;6.00;4.00;;;;;26.54;95.39;100992.66;5053398;28;45328;-84
2023/07/31 08:04:31;;;;;;;;;3.33;3.33;;;;;26.53;95.69;100992.75;5045809;28;70599;-84
2023/07/31 08:06:57;;;;;;;;;7.00;5.00;;;;;26.56;95.59;100990.72;5050523;28;67434;-84
2023/07/31 08:09:22;;;;;;;;;6.67;4.00;;;;;26.68;95.36;100991.91;5049761;28;45419;-83
2023/07/31 08:11:47;;;;;;;;;5.00;4.00;;;;;26.78;94.77;100985.03;5045507;28;51061;-83
2023/07/31 08:14:13;;;;;;;;;8.00;6.00;;;;;26.85;94.29;100983.75;5049381;28;68505;-82
2023/07/31 08:16:38;;;;;;;;;7.00;4.33;;;;;26.98;94.45;100985.78;5049631;28;45667;-82
2023/07/31 08:19:04;;;;;;;;;4.00;4.00;;;;;26.97;94.17;100987.63;5048878;28;61593;-82
2023/07/31 08:21:29;;;;;;;;;5.33;4.00;;;;;27.12;92.93;100994.97;5042530;28;45743;-80
2023/07/31 08:23:55;;;;;;;;;5.00;4.00;;;;;27.25;92.50;100983.41;5046096;28;45692;-82
2023/07/31 08:26:21;;;;;;;;;10.00;5.33;;;;;27.41;92.17;100995.16;5056485;28;64647;-85
2023/07/31 08:28:46;;;;;;;;;5.00;5.00;;;;;27.35;91.78;101007.22;5038659;28;45311;-83
2023/07/31 08:31:12;;;;;;;;;6.00;5.00;;;;;27.47;90.70;101004.78;5047526;28;45204;-85
2023/07/31 08:33:38;;;;;;;;;5.00;3.67;;;;;27.43;90.19;100985.06;5052211;28;68845;-82
2023/07/31 08:36:03;;;;;;;;;6.00;4.33;;;;;27.44;90.42;100983.28;5031978;28;45622;-84
2023/07/31 08:38:29;;;;;;;;;5.67;4.67;;;;;27.44;90.19;100984.13;5051543;28;45533;-81
2023/07/31 08:40:56;;;;;;;;;6.00;4.00;;;;;27.38;90.47;100968.22;5057264;28;45379;-81
2023/07/31 08:43:25;;;;;;;;;5.67;4.00;;;;;27.42;90.64;100972.50;5054836;28;46672;-82
2023/07/31 08:45:50;;;;;;;;;5.67;5.67;;;;;27.37;89.80;100964.59;5021035;28;45480;-82
2023/07/31 08:48:17;;;;;;;;;7.00;5.00;;;;;27.31;89.76;100972.22;5050741;28;59925;-81
2023/07/31 08:50:43;;;;;;;;;4.00;4.00;;;;;27.35;90.56;100962.97;5057287;28;45212;-81
2023/07/31 08:53:08;;;;;;;;;3.67;3.33;;;;;27.48;90.32;100968.53;5055300;28;45538;-83
2023/07/31 08:55:35;;;;;;;;;4.67;4.00;;;;;27.51;90.27;100950.28;5056411;28;45439;-83
2023/07/31 08:58:03;;;;;;;;;5.33;4.33;;;;;27.60;90.14;100949.75;5053905;28;45489;-82
2023/07/31 09:00:29;;;;;;;;;4.67;3.00;;;;;27.69;89.65;100957.31;5051863;28;45258;-84
2023/07/31 09:03:03;;;;;;;;;7.00;6.00;;;;;27.71;89.31;100951.00;5054333;28;47385;-83
2023/07/31 09:05:30;;;;;;;;;5.33;4.00;;;;;27.78;88.96;100955.09;5056154;28;45247;-84
2023/07/31 09:07:57;;;;;;;;;3.67;2.00;;;;;27.76;88.54;100974.19;5041892;28;45353;-83
2023/07/31 09:10:23;;;;;;;;;4.00;4.00;;;;;27.77;89.24;100958.78;5041278;28;45289;-84
2023/07/31 09:12:49;;;;;;;;;6.67;4.00;;;;;27.87;90.19;100965.41;5042060;28;45975;-84
2023/07/31 09:15:14;;;;;;;;;4.33;3.00;;;;;28.09;90.13;100965.00;5045391;28;45324;-84
2023/07/31 09:17:40;;;;;;;;;8.00;4.00;;;;;28.27;89.86;100963.00;5055513;28;45433;-83
2023/07/31 09:20:32;;;;;;;;;4.00;3.00;;;;;28.46;88.64;100960.94;5041735;28;45254;-84
2023/07/31 09:23:08;;;;;;;;;7.00;5.00;;;;;28.56;88.26;100972.13;5033650;28;46530;-84
2023/07/31 09:25:34;;;;;;;;;3.33;3.33;;;;;28.45;87.75;100976.38;5049639;28;45632;-84
2023/07/31 09:28:07;;;;;;;;;8.00;2.00;;;;;28.32;87.78;100971.75;5047055;28;45268;-84
2023/07/31 09:30:50;;;;;;;;;7.67;5.00;;;;;28.10;88.07;100973.03;5050515;28;45584;-84
2023/07/31 09:33:15;;;;;;;;;3.00;3.00;;;;;28.02;88.86;100975.34;5034532;28;46033;-84
2023/07/31 09:35:41;;;;;;;;;5.67;4.00;;;;;27.99;89.43;100974.66;5047748;28;45612;-84
2023/07/31 09:38:09;;;;;;;;;6.67;3.33;;;;;27.93;89.37;100981.31;5059231;28;45241;-84
2023/07/31 09:40:36;;;;;;;;;4.33;4.00;;;;;27.90;89.87;100970.63;5058186;28;45693;-83
2023/07/31 09:43:03;;;;;;;;;3.00;3.00;;;;;27.95;90.10;100971.25;5061789;28;46300;-85
2023/07/31 09:45:29;;;;;;;;;5.67;5.00;;;;;28.01;89.96;100964.56;5053439;28;45321;-84
2023/07/31 09:47:56;;;;;;;;;6.67;5.00;;;;;28.10;90.18;100969.47;5063038;28;45183;-85
2023/07/31 09:50:23;;;;;;;;;4.33;4.33;;;;;28.09;90.35;100968.59;5050404;28;45373;-84
2023/07/31 09:52:49;;;;;;;;;6.33;5.00;;;;;28.10;90.61;100958.59;5061601;28;46565;-84
2023/07/31 09:55:14;;;;;;;;;5.00;3.67;;;;;28.09;90.42;100954.13;5048015;28;45331;-84
2023/07/31 09:57:44;;;;;;;;;5.33;5.33;;;;;27.93;90.28;100949.63;5058562;28;45365;-82
2023/07/31 10:00:10;;;;;;;;;5.00;3.00;;;;;27.91;90.91;100934.38;5054716;28;45442;-83
2023/07/31 10:02:37;;;;;;;;;7.00;5.00;;;;;27.84;91.20;100941.16;5045318;28;46984;-85
2023/07/31 10:05:03;;;;;;;;;6.00;5.00;;;;;27.82;94.30;100935.81;5032168;28;45365;-84
2023/07/31 10:07:30;;;;;;;;;4.00;4.00;;;;;27.75;95.62;100936.25;5062500;28;45249;-85
2023/07/31 10:10:00;;;;;;;;;7.67;5.00;;;;;27.57;97.23;100941.78;5055325;28;45482;-84
2023/07/31 10:12:29;;;;;;;;;6.00;3.00;;;;;27.51;97.07;100949.41;5053136;28;47540;-84
2023/07/31 10:14:55;;;;;;;;;5.67;5.00;;;;;27.38;98.47;100976.34;5046139;28;45443;-83
2023/07/31 10:17:22;;;;;;;;;5.00;3.67;;;;;27.34;99.16;100962.09;5057694;28;45241;-82
2023/07/31 10:19:48;;;;;;;;;5.67;3.33;;;;;27.26;100.00;100939.94;5060332;28;45324;-84
2023/07/31 10:22:14;;;;;;;;;6.67;3.67;;;;;27.14;100.00;100949.66;5048331;28;46613;-85
2023/07/31 10:24:40;;;;;;;;;5.00;3.00;;;;;27.14;100.00;100940.66;5041397;28;45268;-84
2023/07/31 10:27:06;;;;;;;;;5.00;4.00;;;;;27.10;100.00;100925.50;5045453;28;61357;-82
2023/07/31 10:29:32;;;;;;;;;5.00;4.00;;;;;27.05;100.00;100939.28;5057569;28;60520;-83
2023/07/31 10:31:58;;;;;;;;;4.33;4.00;;;;;27.00;100.00;100935.06;5075048;28;47400;-84
2023/07/31 10:34:23;;;;;;;;;4.33;4.00;;;;;27.07;100.00;100936.53;5053864;28;66479;-82
2023/07/31 10:36:49;;;;;;;;;6.33;5.33;;;;;27.10;100.00;100928.22;5043880;28;45441;-84
2023/07/31 10:39:36;;;;;;;;;6.00;4.67;;;;;27.17;100.00;100934.19;5062652;28;45356;-84
2023/07/31 10:42:12;;;;;;;;;6.33;5.00;;;;;27.21;100.00;100928.47;5057796;28;45781;-84
2023/07/31 10:44:39;;;;;;;;;11.00;5.67;;;;;27.25;100.00;100926.47;5048117;28;45425;-84
2023/07/31 10:47:04;;;;;;;;;4.33;4.00;;;;;27.34;100.00;100931.38;5043390;28;45461;-83
2023/07/31 10:49:31;;;;;;;;;7.67;7.00;;;;;27.42;100.00;100935.38;5045527;28;45302;-84
2023/07/31 10:51:57;;;;;;;;;9.67;5.33;;;;;27.46;100.00;100927.09;5055373;28;47563;-83
2023/07/31 10:54:22;;;;;;;;;3.33;3.33;;;;;27.43;100.00;100925.41;5053774;28;45198;-84
2023/07/31 10:56:50;;;;;;;;;7.67;5.33;;;;;27.44;100.00;100919.06;5054782;28;63336;-83
2023/07/31 10:59:17;;;;;;;;;6.33;4.00;;;;;27.45;100.00;100925.34;5054219;28;45582;-83
2023/07/31 11:01:57;;;;;;;;;6.33;5.00;;;;;27.19;100.00;100910.56;5041518;28;45330;-83
2023/07/31 11:04:26;;;;;;;;;6.67;5.00;;;;;27.14;100.00;100924.38;5041695;28;45250;-83
2023/07/31 11:06:59;;;;;;;;;4.00;3.00;;;;;27.11;100.00;100933.56;5038613;28;45482;-83
2023/07/31 11:09:29;;;;;;;;;6.67;4.67;;;;;27.10;100.00;100918.25;5054058;28;45675;-82
2023/07/31 11:11:55;;;;;;;;;5.00;3.00;;;;;26.98;100.00;100920.75;5054121;28;46428;-85
2023/07/31 11:14:20;;;;;;;;;7.00;5.00;;;;;26.92;100.00;100924.69;5051107;28;45511;-84
2023/07/31 11:16:50;;;;;;;;;5.00;5.00;;;;;26.95;100.00;100901.94;5047755;28;65272;-83
2023/07/31 11:19:21;;;;;;;;;5.00;3.33;;;;;26.98;100.00;100924.34;5037687;28;45281;-84
2023/07/31 11:21:48;;;;;;;;;5.00;5.00;;;;;26.80;100.00;100912.69;5038452;28;45687;-84